Time;durP1;ratioP1;P1;durP2;ratioP2;P2;SDS_P1;SDS_P2;PMS_P1;PMS_P2;Temp;Humidity;BMP_temperature;BMP_pressure;BME280_temperature;BME280_humidity;BME280_pressure;Samples;Min_cycle;Max_cycle;Signal;HPM_P1;HPM_P2
2022/08/15 00:00:50;;;;;;;19.20;16.80;;;;;;;16.64;100.00;96013.52;108336;1270;25261;-77
2022/08/15 00:03:26;;;;;;;17.60;15.10;;;;;;;16.68;100.00;96009.84;108312;1270;24193;-77
2022/08/15 00:06:00;;;;;;;16.30;14.70;;;;;;;16.72;100.00;96006.36;108285;1269;22570;-77
2022/08/15 00:08:34;;;;;;;17.10;15.30;;;;;;;16.72;100.00;96000.92;108260;1270;23374;-77
2022/08/15 00:11:09;;;;;;;18.30;14.60;;;;;;;16.56;100.00;95997.94;108323;1270;23953;-77
2022/08/15 00:13:41;;;;;;;17.00;14.80;;;;;;;16.39;100.00;95993.02;108305;1270;25348;-77
2022/08/15 00:16:14;;;;;;;19.80;16.10;;;;;;;16.28;100.00;95990.56;108292;1270;25265;-76
2022/08/15 00:18:46;;;;;;;17.80;15.90;;;;;;;16.27;100.00;95988.63;108286;1270;38802;-77
2022/08/15 00:21:20;;;;;;;18.80;16.70;;;;;;;16.36;100.00;95986.39;108199;1270;22542;-77
2022/08/15 00:23:51;;;;;;;20.60;16.90;;;;;;;16.44;100.00;95988.74;108280;1270;22565;-77
2022/08/15 00:26:26;;;;;;;17.00;15.30;;;;;;;16.52;100.00;95989.63;108284;1270;22648;-77
2022/08/15 00:28:58;;;;;;;16.60;14.80;;;;;;;16.53;100.00;95990.95;108184;1270;25649;-76
2022/08/15 00:31:31;;;;;;;15.90;14.00;;;;;;;16.44;100.00;95986.60;108335;1270;24293;-76
2022/08/15 00:34:03;;;;;;;18.50;14.40;;;;;;;16.32;100.00;95988.14;108371;1269;24247;-77
2022/08/15 00:36:34;;;;;;;18.10;13.90;;;;;;;16.19;100.00;95987.92;108363;1270;22928;-76
2022/08/15 00:39:07;;;;;;;15.90;14.30;;;;;;;16.07;100.00;95985.23;108295;1270;24356;-77
2022/08/15 00:41:41;;;;;;;17.60;14.60;;;;;;;16.02;100.00;95984.19;108336;1268;22655;-77
2022/08/15 00:44:15;;;;;;;16.50;14.60;;;;;;;16.02;100.00;95982.52;108325;1270;24361;-77
2022/08/15 00:46:50;;;;;;;19.20;16.30;;;;;;;16.09;100.00;95985.81;108364;1270;22560;-77
2022/08/15 00:49:23;;;;;;;14.70;12.90;;;;;;;16.16;100.00;95983.07;108228;1270;40538;-76
2022/08/15 00:51:57;;;;;;;16.70;14.80;;;;;;;16.18;100.00;95978.66;108387;1270;23884;-76
2022/08/15 00:54:35;;;;;;;18.30;15.10;;;;;;;16.12;100.00;95976.31;108348;1270;22531;-77
2022/08/15 00:57:10;;;;;;;20.20;16.70;;;;;;;16.07;100.00;95975.92;108373;1270;24171;-77
2022/08/15 00:59:44;;;;;;;17.20;15.40;;;;;;;16.04;100.00;95976.66;108262;1270;27424;-77
2022/08/15 01:02:29;;;;;;;19.70;16.60;;;;;;;15.99;100.00;95979.75;108275;1270;22515;-77
2022/08/15 01:05:02;;;;;;;20.10;18.00;;;;;;;15.97;100.00;95987.17;108270;1270;22556;-77
2022/08/15 01:07:33;;;;;;;18.40;16.40;;;;;;;16.01;100.00;95983.25;108294;1270;22539;-77
2022/08/15 01:10:06;;;;;;;20.20;17.50;;;;;;;16.05;100.00;95979.52;108271;1270;29385;-77
2022/08/15 01:12:38;;;;;;;18.90;17.10;;;;;;;16.14;100.00;95972.10;108310;1270;23218;-77
2022/08/15 01:15:14;;;;;;;17.50;15.60;;;;;;;16.24;100.00;95970.48;108289;1270;22471;-77
2022/08/15 01:17:46;;;;;;;18.50;16.50;;;;;;;16.28;100.00;95967.40;108258;1270;31150;-76
2022/08/15 01:20:22;;;;;;;16.10;14.30;;;;;;;16.27;100.00;95964.22;108282;1270;22465;-76
2022/08/15 01:23:03;;;;;;;17.10;15.40;;;;;;;16.11;100.00;95964.36;108295;1270;22858;-77
2022/08/15 01:25:41;;;;;;;19.80;17.10;;;;;;;16.08;100.00;95961.66;108281;1270;23239;-77
2022/08/15 01:28:16;;;;;;;19.50;17.30;;;;;;;16.15;100.00;95960.53;108260;1270;26866;-77
2022/08/15 01:30:52;;;;;;;20.10;17.60;;;;;;;16.20;100.00;95956.14;108312;1270;24234;-77
2022/08/15 01:33:25;;;;;;;19.10;16.90;;;;;;;16.29;100.00;95955.45;108342;1270;23005;-77
2022/08/15 01:35:58;;;;;;;19.70;17.50;;;;;;;16.38;100.00;95954.81;108290;1269;24188;-76
2022/08/15 01:38:32;;;;;;;19.70;17.50;;;;;;;16.40;100.00;95954.73;108237;1270;37566;-77
2022/08/15 01:41:16;;;;;;;20.10;17.80;;;;;;;16.43;100.00;95958.03;108302;1270;25369;-76
2022/08/15 01:43:56;;;;;;;19.30;17.30;;;;;;;16.44;100.00;95954.56;108178;1271;22577;-77
2022/08/15 01:46:32;;;;;;;19.80;17.30;;;;;;;16.45;100.00;95951.82;108304;1270;22536;-76
2022/08/15 01:49:09;;;;;;;19.70;17.70;;;;;;;16.43;100.00;95948.33;108235;1270;30038;-76
2022/08/15 01:51:40;;;;;;;19.60;17.40;;;;;;;16.38;100.00;95950.45;108294;1270;23028;-76
2022/08/15 01:54:14;;;;;;;22.50;17.00;;;;;;;16.34;100.00;95949.11;108298;1270;22552;-77
2022/08/15 01:56:47;;;;;;;20.40;17.20;;;;;;;16.31;100.00;95948.68;108287;1270;22590;-77
2022/08/15 01:59:21;;;;;;;17.90;16.00;;;;;;;16.27;100.00;95940.39;108235;1270;31773;-76
2022/08/15 02:01:55;;;;;;;15.20;13.70;;;;;;;16.24;100.00;95942.35;108287;1270;22546;-77
2022/08/15 02:04:28;;;;;;;16.80;14.30;;;;;;;16.25;100.00;95936.20;108301;1270;24374;-77
2022/08/15 02:07:02;;;;;;;18.30;15.30;;;;;;;16.25;100.00;95931.48;108275;1270;24242;-77
2022/08/15 02:09:33;;;;;;;17.60;15.90;;;;;;;16.23;100.00;95930.86;108213;1270;39245;-77
2022/08/15 02:12:08;;;;;;;18.20;16.30;;;;;;;16.22;100.00;95926.84;108323;1270;22614;-77
2022/08/15 02:14:41;;;;;;;18.30;16.40;;;;;;;16.19;100.00;95921.77;108314;1270;24183;-77
2022/08/15 02:17:13;;;;;;;17.10;15.40;;;;;;;16.16;100.00;95922.27;108314;1270;22598;-77
2022/08/15 02:19:48;;;;;;;19.00;16.40;;;;;;;16.07;100.00;95921.59;108251;1270;23746;-77
2022/08/15 02:22:22;;;;;;;18.80;16.70;;;;;;;15.99;100.00;95923.92;108323;1270;22581;-77
2022/08/15 02:25:02;;;;;;;15.80;14.10;;;;;;;16.04;100.00;95920.58;108306;1270;23193;-77
2022/08/15 02:27:35;;;;;;;17.10;15.40;;;;;;;16.12;100.00;95913.58;108323;1270;22488;-77
2022/08/15 02:30:11;;;;;;;17.70;15.80;;;;;;;16.17;100.00;95908.92;108278;1270;34058;-77
2022/08/15 02:32:43;;;;;;;18.40;16.60;;;;;;;16.23;100.00;95905.58;108281;1270;22611;-77
2022/08/15 02:35:16;;;;;;;18.50;16.40;;;;;;;16.27;100.00;95899.29;108319;1270;22608;-76
2022/08/15 02:37:47;;;;;;;17.90;16.00;;;;;;;16.31;100.00;95897.55;108253;1270;34264;-76
2022/08/15 02:40:19;;;;;;;17.30;15.50;;;;;;;16.34;100.00;95894.39;108307;1270;22548;-77
2022/08/15 02:42:50;;;;;;;18.00;16.10;;;;;;;16.36;100.00;95890.24;108219;1270;25425;-77
2022/08/15 02:45:21;;;;;;;17.30;15.60;;;;;;;16.34;100.00;95893.94;108274;1270;22530;-77
2022/08/15 02:47:53;;;;;;;15.00;13.50;;;;;;;16.32;100.00;95895.18;108231;1270;28527;-77
2022/08/15 02:50:24;;;;;;;14.70;12.90;;;;;;;16.31;100.00;95894.90;108285;1270;23349;-77
2022/08/15 02:52:55;;;;;;;14.70;12.90;;;;;;;16.31;100.00;95895.57;108323;1270;24238;-76
2022/08/15 02:55:26;;;;;;;14.60;13.10;;;;;;;16.28;100.00;95895.34;108280;1270;22671;-77
2022/08/15 02:57:58;;;;;;;12.10;10.90;;;;;;;16.26;100.00;95895.13;108225;1270;26582;-76
2022/08/15 03:00:29;;;;;;;11.90;10.60;;;;;;;16.21;100.00;95894.80;108328;1270;23160;-77
2022/08/15 03:03:06;;;;;;;15.10;12.20;;;;;;;16.17;100.00;95894.33;108277;1270;22537;-76
2022/08/15 03:05:40;;;;;;;16.80;14.00;;;;;;;16.12;100.00;95895.16;108303;1270;22594;-77
2022/08/15 03:08:11;;;;;;;14.40;12.90;;;;;;;15.98;100.00;95895.25;108290;1270;23907;-76
2022/08/15 03:10:43;;;;;;;16.60;14.90;;;;;;;15.93;100.00;95895.70;108285;1270;23917;-77
2022/08/15 03:13:17;;;;;;;18.00;16.10;;;;;;;15.92;100.00;95892.22;108273;1270;24268;-77
2022/08/15 03:15:52;;;;;;;18.00;16.10;;;;;;;15.99;100.00;95892.45;108319;1267;22601;-76
2022/08/15 03:18:25;;;;;;;18.70;16.30;;;;;;;16.24;100.00;95899.46;108216;1269;36617;-77
2022/08/15 03:20:57;;;;;;;18.40;15.90;;;;;;;16.42;100.00;95897.77;108301;1270;22636;-77
2022/08/15 03:23:32;;;;;;;17.90;16.00;;;;;;;16.57;100.00;95899.20;108228;1270;23139;-77
2022/08/15 03:26:04;;;;;;;19.70;16.70;;;;;;;16.73;100.00;95898.34;108299;1270;22528;-77
2022/08/15 03:28:35;;;;;;;17.90;14.80;;;;;;;16.84;100.00;95892.40;108246;1270;26506;-77
2022/08/15 03:31:08;;;;;;;17.00;15.30;;;;;;;16.89;100.00;95894.19;108303;1270;22541;-77
2022/08/15 03:33:41;;;;;;;16.70;15.00;;;;;;;16.91;100.00;95898.68;108303;1270;24057;-77
2022/08/15 03:36:13;;;;;;;17.40;14.90;;;;;;;16.86;100.00;95907.64;108269;1270;24999;-77
2022/08/15 03:38:45;;;;;;;15.20;13.50;;;;;;;16.87;100.00;95913.67;108248;1270;28213;-76
2022/08/15 03:41:17;;;;;;;15.50;13.90;;;;;;;16.87;100.00;95909.40;108314;1270;24997;-77
2022/08/15 03:43:48;;;;;;;17.20;14.10;;;;;;;16.86;100.00;95915.48;108315;1270;22545;-77
2022/08/15 03:46:21;;;;;;;17.10;15.20;;;;;;;16.81;100.00;95913.64;108332;1270;22898;-77
2022/08/15 03:48:56;;;;;;;17.30;14.40;;;;;;;16.75;100.00;95914.69;108231;1270;30130;-76
2022/08/15 03:51:28;;;;;;;16.70;15.10;;;;;;;16.73;100.00;95911.17;108254;1270;24182;-77
2022/08/15 03:54:01;;;;;;;16.20;14.50;;;;;;;16.72;100.00;95906.88;108294;1270;22676;-77
2022/08/15 03:56:35;;;;;;;17.30;15.20;;;;;;;16.72;100.00;95910.40;108251;1268;23240;-77
2022/08/15 03:59:06;;;;;;;15.00;13.40;;;;;;;16.72;100.00;95907.79;108244;1269;23379;-77
2022/08/15 04:01:39;;;;;;;15.30;13.70;;;;;;;16.73;100.00;95908.11;108299;1270;22496;-77
2022/08/15 04:04:10;;;;;;;16.80;14.80;;;;;;;16.78;100.00;95905.14;108318;1270;22636;-77
2022/08/15 04:06:43;;;;;;;15.30;13.70;;;;;;;16.85;100.00;95906.91;108292;1270;24295;-77
2022/08/15 04:09:14;;;;;;;15.60;14.00;;;;;;;16.89;100.00;95906.27;108231;1270;25074;-77
2022/08/15 04:11:45;;;;;;;14.40;12.90;;;;;;;16.94;100.00;95904.05;108287;1270;22560;-77
2022/08/15 04:14:17;;;;;;;14.70;13.10;;;;;;;16.98;100.00;95907.20;108292;1270;22527;-77
2022/08/15 04:16:50;;;;;;;17.20;14.20;;;;;;;17.06;100.00;95909.23;108307;1270;22543;-77
2022/08/15 04:19:23;;;;;;;14.90;12.80;;;;;;;17.16;100.00;95908.79;108189;1270;39287;-76
2022/08/15 04:21:54;;;;;;;14.10;12.80;;;;;;;17.25;100.00;95913.70;108114;1271;22560;-76
2022/08/15 04:24:25;;;;;;;14.40;12.90;;;;;;;17.32;100.00;95916.75;108299;1270;22474;-76
2022/08/15 04:26:56;;;;;;;14.40;12.90;;;;;;;17.39;100.00;95919.32;108323;1270;23238;-77
2022/08/15 04:29:27;;;;;;;14.10;12.60;;;;;;;17.53;100.00;95918.97;108263;1270;25419;-77
2022/08/15 04:32:00;;;;;;;15.20;12.40;;;;;;;17.68;100.00;95914.05;108126;1271;22610;-76
2022/08/15 04:34:31;;;;;;;14.30;11.90;;;;;;;17.81;100.00;95914.88;108305;1270;22585;-76
2022/08/15 04:37:04;;;;;;;16.00;13.20;;;;;;;18.00;100.00;95923.14;108307;1270;22499;-77
2022/08/15 04:39:35;;;;;;;15.00;12.50;;;;;;;18.58;100.00;95924.33;108258;1270;23721;-77
2022/08/15 04:42:06;;;;;;;12.30;11.10;;;;;;;20.02;100.00;95932.98;108293;1270;24201;-77
2022/08/15 04:44:40;;;;;;;11.00;9.80;;;;;;;21.16;100.00;95932.21;108316;1270;22653;-77
2022/08/15 04:47:12;;;;;;;11.20;9.50;;;;;;;22.21;99.26;95930.28;108292;1270;22579;-77
2022/08/15 04:49:45;;;;;;;12.10;9.90;;;;;;;23.42;97.43;95930.56;108237;1270;23955;-76
2022/08/15 04:52:20;;;;;;;9.90;8.90;;;;;;;24.75;94.85;95929.19;108256;1270;22573;-77
2022/08/15 04:54:51;;;;;;;11.20;9.60;;;;;;;26.02;90.61;95927.47;108235;1270;22556;-76
2022/08/15 04:57:22;;;;;;;10.70;9.40;;;;;;;26.88;85.36;95920.77;108317;1270;23345;-77
2022/08/15 04:59:53;;;;;;;9.00;8.10;;;;;;;27.51;81.36;95916.88;108219;1270;35313;-77
2022/08/15 05:02:27;;;;;;;11.20;8.30;;;;;;;28.04;77.96;95916.11;108307;1270;25995;-77
2022/08/15 05:04:59;;;;;;;9.50;8.60;;;;;;;28.32;72.70;95917.04;108298;1270;25370;-76
2022/08/15 05:07:31;;;;;;;9.90;8.40;;;;;;;27.94;69.49;95912.44;108298;1270;22570;-77
2022/08/15 05:10:04;;;;;;;9.30;8.10;;;;;;;27.85;68.51;95908.82;108197;1270;31068;-77
2022/08/15 05:12:38;;;;;;;8.20;7.40;;;;;;;28.13;68.23;95901.53;108309;1270;22542;-77
2022/08/15 05:15:11;;;;;;;8.80;7.20;;;;;;;28.59;65.01;95901.92;108292;1270;22533;-77
2022/08/15 05:17:42;;;;;;;8.90;7.80;;;;;;;28.61;63.34;95894.10;108282;1270;26908;-77
2022/08/15 05:20:17;;;;;;;8.50;7.60;;;;;;;28.77;62.51;95893.92;108287;1270;49338;-77
2022/08/15 05:23:00;;;;;;;8.70;7.10;;;;;;;29.56;62.36;95893.06;108272;1270;22546;-77
2022/08/15 05:25:33;;;;;;;7.50;6.80;;;;;;;30.40;60.61;95890.19;108292;1270;24194;-77
2022/08/15 05:28:05;;;;;;;8.00;7.20;;;;;;;31.10;58.15;95896.15;108141;1270;28245;-77
2022/08/15 05:30:37;;;;;;;7.60;6.90;;;;;;;31.66;56.91;95897.05;108313;1270;22551;-78
2022/08/15 05:33:12;;;;;;;7.50;6.80;;;;;;;32.23;55.49;95899.60;108317;1270;22678;-77
2022/08/15 05:35:46;;;;;;;8.40;7.60;;;;;;;32.84;54.60;95904.71;108284;1270;22530;-78
2022/08/15 05:38:21;;;;;;;7.90;6.80;;;;;;;33.16;52.86;95904.10;108159;1270;48365;-78
2022/08/15 05:41:06;;;;;;;7.60;6.90;;;;;;;33.69;51.93;95904.58;108371;1268;24856;-78
2022/08/15 05:43:46;;;;;;;7.00;6.30;;;;;;;34.16;50.14;95908.09;108334;1270;25368;-78
2022/08/15 05:46:24;;;;;;;7.70;6.70;;;;;;;34.52;48.44;95902.46;108340;1268;22535;-78
2022/08/15 05:49:02;;;;;;;7.40;6.10;;;;;;;33.68;46.46;95902.96;108323;1270;24398;-78
2022/08/15 05:51:42;;;;;;;6.80;6.10;;;;;;;33.51;47.97;95903.85;108309;1271;22633;-78
2022/08/15 05:54:23;;;;;;;6.60;5.90;;;;;;;34.11;46.78;95903.38;108329;1271;24287;-78
2022/08/15 05:57:05;;;;;;;6.80;6.10;;;;;;;33.78;45.34;95911.89;108367;1270;22539;-78
2022/08/15 05:59:42;;;;;;;6.60;6.00;;;;;;;33.35;45.39;95907.09;108199;1270;41855;-78
2022/08/15 06:02:19;;;;;;;7.80;7.10;;;;;;;34.09;46.15;95907.61;108354;1269;22628;-78
2022/08/15 06:04:56;;;;;;;7.80;7.10;;;;;;;34.89;45.26;95906.38;108287;1270;22525;-78
2022/08/15 06:07:28;;;;;;;9.30;7.60;;;;;;;35.25;44.36;95905.17;108298;1270;24417;-78
2022/08/15 06:10:05;;;;;;;8.90;7.40;;;;;;;36.13;44.88;95900.16;108247;1268;31354;-78
2022/08/15 06:12:44;;;;;;;6.90;6.40;;;;;;;37.65;44.38;95896.08;108281;1270;22541;-78
2022/08/15 06:15:21;;;;;;;7.10;6.40;;;;;;;38.82;42.71;95901.12;108331;1268;22643;-78
2022/08/15 06:17:56;;;;;;;6.20;5.60;;;;;;;39.17;40.13;95901.64;108232;1269;31051;-78
2022/08/15 06:20:36;;;;;;;7.80;7.10;;;;;;;39.07;38.86;95908.95;108333;1271;22589;-78
2022/08/15 06:23:18;;;;;;;8.10;7.40;;;;;;;39.50;39.51;95908.19;108349;1270;22694;-78
2022/08/15 06:26:06;;;;;;;8.00;7.10;;;;;;;39.96;37.41;95903.61;108341;1269;22585;-78
2022/08/15 06:29:02;;;;;;;7.70;7.00;;;;;;;39.45;37.58;95903.09;108210;1271;29477;-78
2022/08/15 06:31:38;;;;;;;8.60;7.50;;;;;;;40.17;37.77;95898.63;108353;1268;22559;-79
2022/08/15 06:34:19;;;;;;;8.30;7.40;;;;;;;41.15;37.04;95893.52;108298;1271;23908;-78
2022/08/15 06:37:00;;;;;;;7.50;6.70;;;;;;;41.83;36.37;95894.70;108332;1270;23908;-78
2022/08/15 06:39:38;;;;;;;8.10;7.30;;;;;;;42.14;34.50;95892.29;108268;1270;23853;-78
2022/08/15 06:42:16;;;;;;;8.00;7.00;;;;;;;41.78;33.60;95890.55;108332;1270;23294;-78
2022/08/15 06:44:51;;;;;;;7.60;6.80;;;;;;;41.29;33.78;95889.82;108302;1270;22545;-78
2022/08/15 06:47:26;;;;;;;8.10;7.40;;;;;;;40.91;31.76;95891.70;108254;1271;22601;-78
2022/08/15 06:50:06;;;;;;;8.60;7.80;;;;;;;39.75;33.03;95891.38;108225;1270;35606;-78
2022/08/15 06:52:37;;;;;;;9.90;8.50;;;;;;;38.63;31.66;95889.74;108319;1269;23570;-78
2022/08/15 06:55:10;;;;;;;9.00;8.30;;;;;;;37.23;33.09;95883.42;108349;1271;24043;-78
2022/08/15 06:57:50;;;;;;;9.60;8.00;;;;;;;36.72;35.21;95889.29;108338;1271;22633;-78
2022/08/15 07:00:29;;;;;;;9.80;8.10;;;;;;;37.36;35.12;95889.74;108337;1271;24391;-78
2022/08/15 07:03:05;;;;;;;;;;;;;;;37.43;34.97;95884.52;108344;1270;22467;-78
2022/08/15 07:05:45;;;;;;;9.40;8.50;;;;;;;37.67;35.73;95886.33;107304;1271;1340821;-78
2022/08/15 07:08:27;;;;;;;9.00;8.20;;;;;;;38.92;34.97;95895.57;108219;1271;26944;-78
2022/08/15 07:11:10;;;;;;;9.00;8.10;;;;;;;38.59;33.12;95894.42;108318;1271;22476;-79
2022/08/15 07:14:06;;;;;;;9.00;8.10;;;;;;;38.25;34.02;95900.62;108343;1271;25293;-78
2022/08/15 07:16:50;;;;;;;8.40;7.70;;;;;;;38.40;34.08;95896.84;108258;1271;22562;-79
2022/08/15 07:19:21;;;;;;;9.70;8.70;;;;;;;38.80;33.74;95899.89;108248;1269;25961;-78
2022/08/15 07:21:53;;;;;;;9.00;8.20;;;;;;;39.16;32.65;95900.61;108260;1271;24007;-79
2022/08/15 07:24:31;;;;;;;8.90;8.10;;;;;;;38.90;33.99;95900.29;108321;1271;23775;-78
2022/08/15 07:27:08;;;;;;;;;;;;;;;39.69;33.56;95902.00;108305;1268;22553;-78
2022/08/15 07:29:47;;;;;;;7.60;7.00;;;;;;;40.68;33.70;95899.23;108242;1271;32800;-79
2022/08/15 07:32:38;;;;;;;8.60;7.80;;;;;;;42.00;33.05;95902.07;108290;1271;22696;-79
2022/08/15 07:35:20;;;;;;;8.70;7.90;;;;;;;42.30;30.46;95897.88;108289;1271;22486;-79
2022/08/15 07:37:58;;;;;;;8.60;7.80;;;;;;;41.92;31.53;95894.27;108248;1271;38018;-79
2022/08/15 07:40:31;;;;;;;;;;;;;;;42.79;30.95;95895.16;108272;1271;24974;-79
2022/08/15 07:43:06;;;;;;;8.40;7.50;;;;;;;42.40;29.37;95893.57;108305;1269;22522;-79
2022/08/15 07:45:39;;;;;;;8.10;7.30;;;;;;;42.85;30.82;95896.42;108227;1270;25296;-79
2022/08/15 07:48:24;;;;;;;8.40;7.70;;;;;;;43.71;29.89;95894.59;108202;1268;31647;-79
2022/08/15 07:51:09;;;;;;;9.00;8.10;;;;;;;43.23;28.68;95892.42;108250;1271;22472;-79
2022/08/15 07:53:53;;;;;;;8.50;7.70;;;;;;;42.47;28.87;95884.55;108292;1271;22590;-79
2022/08/15 07:56:27;;;;;;;8.30;7.50;;;;;;;42.59;30.07;95883.94;108318;1271;22598;-79
2022/08/15 07:59:13;;;;;;;7.50;6.70;;;;;;;43.26;29.88;95888.13;108212;1270;25316;-79
2022/08/15 08:01:49;;;;;;;7.90;6.90;;;;;;;43.31;27.51;95888.60;108312;1268;25404;-77
2022/08/15 08:04:26;;;;;;;8.40;7.70;;;;;;;42.44;28.22;95890.39;108351;1268;22473;-77
2022/08/15 08:07:01;;;;;;;8.20;7.30;;;;;;;41.50;28.46;95896.95;108284;1271;22535;-77
2022/08/15 08:09:40;;;;;;;8.10;7.40;;;;;;;40.26;30.02;95896.54;108251;1269;28019;-77
2022/08/15 08:12:22;;;;;;;7.90;7.20;;;;;;;40.73;30.40;95899.84;108295;1268;22610;-77
2022/08/15 08:15:17;;;;;;;8.00;7.40;;;;;;;40.66;29.59;95901.96;108285;1270;23752;-77
2022/08/15 08:17:53;;;;;;;9.30;8.60;;;;;;;40.43;30.37;95901.23;108232;1271;30512;-75
2022/08/15 08:20:34;;;;;;;8.60;7.80;;;;;;;41.06;31.44;95905.29;108285;1271;22584;-76
2022/08/15 08:23:11;;;;;;;8.40;7.60;;;;;;;42.42;31.30;95904.00;108323;1270;25370;-76
2022/08/15 08:25:52;;;;;;;8.90;8.00;;;;;;;43.94;29.20;95904.77;108340;1268;22465;-76
2022/08/15 08:28:35;;;;;;;8.30;7.30;;;;;;;44.00;29.01;95901.69;108169;1270;48808;-76
2022/08/15 08:31:17;;;;;;;8.40;7.70;;;;;;;45.12;28.53;95899.98;108267;1270;22529;-76
2022/08/15 08:34:06;;;;;;;8.30;7.50;;;;;;;45.83;27.43;95906.11;108276;1270;23371;-76
2022/08/15 08:36:46;;;;;;;8.60;7.80;;;;;;;45.33;26.79;95906.48;108247;1270;22614;-78
2022/08/15 08:39:31;;;;;;;9.20;6.90;;;;;;;46.01;27.35;95905.88;108200;1270;43736;-78
2022/08/15 08:42:14;;;;;;;7.90;7.30;;;;;;;46.64;25.93;95911.25;108310;1271;22850;-78
2022/08/15 08:44:54;;;;;;;8.20;7.40;;;;;;;45.67;25.49;95908.52;108259;1270;24183;-78
2022/08/15 08:47:35;;;;;;;7.30;6.70;;;;;;;45.47;27.02;95910.02;108195;1271;22562;-78
2022/08/15 08:50:22;;;;;;;8.30;7.60;;;;;;;45.65;25.50;95910.09;108213;1270;24254;-77
2022/08/15 08:53:01;;;;;;;8.00;7.30;;;;;;;45.26;26.85;95906.61;108273;1270;22576;-78
2022/08/15 08:55:39;;;;;;;8.80;7.90;;;;;;;45.78;26.44;95905.92;108304;1270;23244;-78
2022/08/15 08:58:14;;;;;;;9.50;8.60;;;;;;;46.07;26.26;95903.30;108235;1270;25769;-76
2022/08/15 09:00:50;;;;;;;8.90;7.90;;;;;;;45.59;24.77;95900.17;108282;1270;22557;-78
2022/08/15 09:03:26;;;;;;;9.50;8.40;;;;;;;43.57;25.24;95906.53;108264;1270;22630;-78
2022/08/15 09:05:59;;;;;;;10.40;9.50;;;;;;;41.86;26.83;95900.88;108330;1270;23150;-78
2022/08/15 09:08:38;;;;;;;9.30;8.50;;;;;;;40.72;28.12;95899.13;108223;1270;40125;-77
2022/08/15 09:11:18;;;;;;;9.40;8.40;;;;;;;40.52;29.49;95896.95;108256;1270;24404;-77
2022/08/15 09:13:50;;;;;;;8.30;7.50;;;;;;;41.54;29.44;95892.17;108272;1270;22558;-76
2022/08/15 09:16:26;;;;;;;8.50;7.70;;;;;;;42.25;28.93;95894.42;108270;1270;22538;-77
2022/08/15 09:19:03;;;;;;;10.20;7.80;;;;;;;42.62;28.49;95894.55;108242;1270;43328;-77
2022/08/15 09:21:39;;;;;;;8.70;7.90;;;;;;;42.44;28.08;95892.31;108325;1270;22717;-76
2022/08/15 09:24:12;;;;;;;9.60;8.10;;;;;;;41.62;28.13;95889.86;108306;1270;22549;-76
2022/08/15 09:26:52;;;;;;;10.40;8.20;;;;;;;40.00;29.69;95882.84;108293;1270;22571;-76
2022/08/15 09:29:27;;;;;;;8.80;7.80;;;;;;;39.11;30.58;95880.05;108222;1270;43468;-77
2022/08/15 09:32:16;;;;;;;8.80;7.80;;;;;;;38.24;31.64;95878.14;108264;1270;24029;-77
2022/08/15 09:35:07;;;;;;;9.10;8.30;;;;;;;37.31;31.90;95870.70;108300;1270;22557;-77
2022/08/15 09:37:53;;;;;;;9.00;7.80;;;;;;;35.19;33.28;95874.45;108344;1270;22566;-77
2022/08/15 09:40:43;;;;;;;8.20;7.40;;;;;;;33.78;34.81;95873.60;108259;1270;22540;-76
2022/08/15 09:43:44;;;;;;;7.70;7.00;;;;;;;33.39;36.14;95869.20;108259;1270;24278;-78
2022/08/15 09:46:37;;;;;;;9.00;7.20;;;;;;;33.17;36.23;95861.60;108168;1271;22624;-77
2022/08/15 09:49:29;;;;;;;8.00;7.10;;;;;;;32.84;36.51;95857.33;108171;1270;28163;-78
2022/08/15 09:52:14;;;;;;;8.20;7.50;;;;;;;32.27;36.87;95856.52;108109;1271;24244;-77
2022/08/15 09:54:56;;;;;;;8.00;7.20;;;;;;;32.12;37.96;95861.77;108128;1271;22557;-76
2022/08/15 09:57:40;;;;;;;8.00;7.20;;;;;;;32.23;39.04;95862.77;108139;1271;24228;-77
2022/08/15 10:00:28;;;;;;;8.60;7.70;;;;;;;32.45;39.49;95862.20;108114;1271;22552;-78
2022/08/15 10:03:19;;;;;;;11.30;9.10;;;;;;;32.29;40.04;95861.90;108157;1271;22642;-78
2022/08/15 10:06:04;;;;;;;11.00;9.80;;;;;;;32.09;41.42;95859.66;108134;1271;22770;-77
2022/08/15 10:09:12;;;;;;;11.70;10.50;;;;;;;31.95;42.41;95861.40;108197;1271;26105;-76
2022/08/15 10:12:20;;;;;;;11.80;10.70;;;;;;;31.87;43.58;95860.70;108171;1270;22907;-75
2022/08/15 10:15:04;;;;;;;11.20;10.00;;;;;;;31.96;44.15;95856.13;108185;1270;22555;-76
2022/08/15 10:17:46;;;;;;;12.00;10.80;;;;;;;31.94;44.55;95855.57;108265;1271;22798;-75
2022/08/15 10:20:58;;;;;;;11.20;10.20;;;;;;;31.90;44.82;95856.75;108412;1271;22543;-76
2022/08/15 10:23:42;;;;;;;14.20;11.50;;;;;;;32.02;45.56;95855.55;108203;1271;25309;-76
2022/08/15 10:26:27;;;;;;;13.90;12.50;;;;;;;32.12;45.72;95854.48;108158;1271;23735;-75
2022/08/15 10:29:23;;;;;;;13.80;12.40;;;;;;;31.93;45.47;95854.34;108005;1273;45679;-76
2022/08/15 10:31:59;;;;;;;15.00;13.50;;;;;;;31.55;46.55;95854.99;108148;1271;22588;-75
2022/08/15 10:34:39;;;;;;;14.80;13.30;;;;;;;31.48;47.23;95855.50;108114;1273;24192;-76
2022/08/15 10:37:20;;;;;;;14.60;13.10;;;;;;;31.51;47.72;95855.42;108213;1271;24294;-76
2022/08/15 10:40:07;;;;;;;15.00;13.60;;;;;;;31.54;48.07;95855.11;107996;1273;27526;-76
2022/08/15 10:42:49;;;;;;;15.20;13.80;;;;;;;31.60;48.23;95852.19;108101;1273;22585;-76
2022/08/15 10:45:36;;;;;;;14.90;13.40;;;;;;;31.56;48.09;95855.73;108104;1273;25701;-76
2022/08/15 10:48:20;;;;;;;14.70;13.30;;;;;;;31.26;48.59;95857.10;108012;1273;37018;-76
2022/08/15 10:51:01;;;;;;;14.60;13.20;;;;;;;31.29;49.10;95858.13;108167;1270;22533;-76
2022/08/15 10:53:48;;;;;;;15.10;13.70;;;;;;;31.35;49.01;95858.42;108227;1270;22777;-75
2022/08/15 10:56:25;;;;;;;15.40;13.90;;;;;;;31.48;49.51;95860.73;108219;1270;22590;-75
2022/08/15 10:59:06;;;;;;;14.90;13.40;;;;;;;31.57;49.58;95859.55;108153;1270;33062;-76
2022/08/15 11:01:39;;;;;;;15.70;14.30;;;;;;;31.49;48.97;95860.96;108208;1270;22549;-76
2022/08/15 11:04:26;;;;;;;15.50;14.10;;;;;;;31.50;49.48;95858.66;108211;1270;24493;-76
2022/08/15 11:06:58;;;;;;;15.60;14.10;;;;;;;31.62;50.10;95854.88;108218;1270;23348;-76
2022/08/15 11:09:29;;;;;;;15.90;14.40;;;;;;;31.68;49.70;95851.10;108133;1270;43194;-76
2022/08/15 11:12:07;;;;;;;15.20;13.80;;;;;;;31.70;49.53;95851.27;108251;1270;22553;-76
2022/08/15 11:14:43;;;;;;;16.00;14.40;;;;;;;31.66;49.37;95853.99;108261;1270;24008;-76
2022/08/15 11:17:19;;;;;;;14.80;13.40;;;;;;;31.65;49.74;95856.20;108206;1270;22621;-76
2022/08/15 11:19:52;;;;;;;15.50;13.90;;;;;;;31.37;49.73;95859.25;108208;1270;35993;-76
2022/08/15 11:22:51;;;;;;;15.30;13.80;;;;;;;31.35;50.59;95855.93;108254;1270;24024;-76
2022/08/15 11:25:27;;;;;;;14.20;12.90;;;;;;;31.43;50.23;95851.72;108221;1270;23345;-76
2022/08/15 11:28:05;;;;;;;14.90;13.50;;;;;;;31.47;50.64;95854.98;108206;1270;24141;-76
2022/08/15 11:30:39;;;;;;;15.50;14.00;;;;;;;31.38;50.31;95858.52;108235;1270;22778;-76
2022/08/15 11:33:26;;;;;;;15.00;13.70;;;;;;;31.16;49.99;95859.78;108247;1270;22526;-76
2022/08/15 11:36:10;;;;;;;14.30;13.00;;;;;;;30.45;50.15;95861.09;108280;1270;22539;-76
2022/08/15 11:38:45;;;;;;;15.80;14.30;;;;;;;29.68;50.56;95867.70;108232;1270;32457;-77
2022/08/15 11:41:29;;;;;;;15.80;14.30;;;;;;;28.86;52.14;95869.94;108288;1270;24267;-76
2022/08/15 11:44:07;;;;;;;16.30;14.70;;;;;;;28.62;53.58;95870.56;108195;1271;22483;-76
2022/08/15 11:46:40;;;;;;;16.20;14.50;;;;;;;28.18;55.51;95872.43;108264;1270;22565;-76
2022/08/15 11:49:21;;;;;;;14.70;13.20;;;;;;;27.50;58.30;95878.30;108159;1270;35036;-76
2022/08/15 11:51:53;;;;;;;16.60;15.00;;;;;;;26.67;60.94;95882.23;108261;1270;22539;-76
2022/08/15 11:54:26;;;;;;;17.60;14.80;;;;;;;26.13;62.75;95886.98;108270;1270;22525;-76
2022/08/15 11:57:02;;;;;;;16.40;14.70;;;;;;;25.77;64.43;95894.13;108218;1270;23719;-76
2022/08/15 11:59:36;;;;;;;16.70;15.00;;;;;;;25.42;65.82;95893.76;108240;1270;23466;-76